createdAt,value
2018-09-11T00:01:15.289Z,18.73
2018-09-11T00:03:42.526Z,18.72
2018-09-11T00:06:09.785Z,18.77
2018-09-11T00:08:36.970Z,18.78
2018-09-11T00:11:04.295Z,18.76
2018-09-11T00:13:31.523Z,18.59
2018-09-11T00:15:58.765Z,18.37
2018-09-11T00:18:26.199Z,18.40
2018-09-11T00:20:53.491Z,18.43
2018-09-11T00:23:20.663Z,18.35
2018-09-11T00:25:47.966Z,18.30
2018-09-11T00:28:15.206Z,18.39
2018-09-11T00:30:42.473Z,18.46
2018-09-11T00:33:09.768Z,18.51
2018-09-11T00:35:37.032Z,18.52
2018-09-11T00:38:04.253Z,18.45
2018-09-11T00:40:31.503Z,18.31
2018-09-11T00:42:58.752Z,18.34
2018-09-11T00:45:26.052Z,18.35
2018-09-11T00:47:53.302Z,18.32
2018-09-11T00:50:20.553Z,18.31
2018-09-11T00:52:47.795Z,18.38
2018-09-11T00:55:15.028Z,18.26
2018-09-11T00:57:42.297Z,18.29
2018-09-11T01:00:09.589Z,18.28
2018-09-11T01:02:36.862Z,18.18
2018-09-11T01:05:04.096Z,18.15
2018-09-11T01:07:33.652Z,18.22
2018-09-11T01:10:01.271Z,18.19
2018-09-11T01:12:28.460Z,18.11
2018-09-11T01:14:55.753Z,18.06
2018-09-11T01:17:22.965Z,17.95
2018-09-11T01:19:50.150Z,17.91
2018-09-11T01:22:17.421Z,17.84
2018-09-11T01:24:44.645Z,17.77
2018-09-11T01:27:11.883Z,17.81
2018-09-11T01:29:39.126Z,17.77
2018-09-11T01:32:06.433Z,17.70
2018-09-11T01:34:33.646Z,17.63
2018-09-11T01:37:00.927Z,17.55
2018-09-11T01:39:28.170Z,17.52
2018-09-11T01:41:55.432Z,17.53
2018-09-11T01:44:22.676Z,17.55
2018-09-11T01:46:49.845Z,17.52
2018-09-11T01:49:17.152Z,17.44
2018-09-11T01:51:44.329Z,17.41
2018-09-11T01:54:11.583Z,17.33
2018-09-11T01:56:38.811Z,17.24
2018-09-11T01:59:06.018Z,17.24
2018-09-11T02:01:33.253Z,17.16
2018-09-11T02:04:00.465Z,17.14
2018-09-11T02:06:27.669Z,17.03
2018-09-11T02:08:54.878Z,17.05
2018-09-11T02:11:22.143Z,17.07
2018-09-11T02:13:49.662Z,17.16
2018-09-11T02:16:16.850Z,17.07
2018-09-11T02:18:44.065Z,17.08
2018-09-11T02:21:11.253Z,17.12
2018-09-11T02:23:38.441Z,16.97
2018-09-11T02:26:05.757Z,16.75
2018-09-11T02:28:32.952Z,16.75
2018-09-11T02:31:00.113Z,16.80
2018-09-11T02:33:27.340Z,16.84
2018-09-11T02:35:54.825Z,16.81
2018-09-11T02:38:21.913Z,16.78
2018-09-11T02:40:49.131Z,16.73
2018-09-11T02:43:16.392Z,16.74
2018-09-11T02:45:43.620Z,16.62
2018-09-11T02:48:10.887Z,16.53
2018-09-11T02:50:38.093Z,16.47
2018-09-11T02:53:05.405Z,16.48
2018-09-11T02:55:32.699Z,16.48
2018-09-11T02:57:59.919Z,16.44
2018-09-11T03:00:27.191Z,16.45
2018-09-11T03:02:54.416Z,16.42
2018-09-11T03:05:21.638Z,16.46
2018-09-11T03:07:48.872Z,16.44
2018-09-11T03:10:16.141Z,16.50
2018-09-11T03:12:43.340Z,16.53
2018-09-11T03:15:10.563Z,16.42
2018-09-11T03:17:37.850Z,16.35
2018-09-11T03:20:05.107Z,16.23
2018-09-11T03:22:32.319Z,16.14
2018-09-11T03:24:59.535Z,16.14
2018-09-11T03:27:26.861Z,16.07
2018-09-11T03:29:54.011Z,16.00
2018-09-11T03:32:21.242Z,15.93
2018-09-11T03:34:48.460Z,15.81
2018-09-11T03:37:15.707Z,15.80
2018-09-11T03:39:42.915Z,15.89
2018-09-11T03:42:10.139Z,15.83
2018-09-11T03:44:37.366Z,15.83
2018-09-11T03:47:04.744Z,15.82
2018-09-11T03:49:31.974Z,15.84
2018-09-11T03:51:59.230Z,15.89
2018-09-11T03:54:26.553Z,15.92
2018-09-11T03:56:53.777Z,15.86
2018-09-11T03:59:21.012Z,15.83
2018-09-11T04:01:48.222Z,15.84
2018-09-11T04:04:15.459Z,15.79
2018-09-11T04:06:42.674Z,15.77
2018-09-11T04:09:11.413Z,15.75
2018-09-11T04:11:41.659Z,15.76
2018-09-11T04:14:08.908Z,15.80
2018-09-11T04:16:36.194Z,15.79
2018-09-11T04:19:03.415Z,15.76
2018-09-11T04:21:30.647Z,15.74
2018-09-11T04:23:58.011Z,15.68
2018-09-11T04:26:25.296Z,15.60
2018-09-11T04:28:52.541Z,15.52
2018-09-11T04:31:19.859Z,15.58
2018-09-11T04:33:47.168Z,15.61
2018-09-11T04:36:14.517Z,15.65
2018-09-11T04:38:41.739Z,15.70
2018-09-11T04:41:09.056Z,15.61
2018-09-11T04:43:36.342Z,15.58
2018-09-11T04:46:03.550Z,15.57
2018-09-11T04:48:30.760Z,15.58
2018-09-11T04:50:58.060Z,15.60
2018-09-11T04:53:25.251Z,15.60
2018-09-11T04:55:52.483Z,15.62
2018-09-11T04:58:19.726Z,15.61
2018-09-11T05:00:47.037Z,15.69
2018-09-11T05:03:14.557Z,15.77
2018-09-11T05:05:41.769Z,15.81
2018-09-11T05:08:09.033Z,15.78
2018-09-11T05:10:36.271Z,15.78
2018-09-11T05:13:03.460Z,15.81
2018-09-11T05:15:30.757Z,15.81
2018-09-11T05:17:57.989Z,15.83
2018-09-11T05:20:25.236Z,15.91
2018-09-11T05:22:52.519Z,15.87
2018-09-11T05:25:19.775Z,15.85
2018-09-11T05:27:46.985Z,15.90
2018-09-11T05:30:14.212Z,15.91
2018-09-11T05:32:41.462Z,15.96
2018-09-11T05:35:08.721Z,16.03
2018-09-11T05:37:35.932Z,16.04
2018-09-11T05:40:03.196Z,16.09
2018-09-11T05:42:30.465Z,16.12
2018-09-11T05:44:57.649Z,16.16
2018-09-11T05:47:24.891Z,16.15
2018-09-11T05:49:52.087Z,16.23
2018-09-11T05:52:19.377Z,16.29
2018-09-11T05:54:46.623Z,16.44
2018-09-11T05:57:13.883Z,16.58
2018-09-11T05:59:41.102Z,16.56
2018-09-11T06:02:08.514Z,16.73
2018-09-11T06:04:35.766Z,16.88
2018-09-11T06:07:03.122Z,16.98
2018-09-11T06:09:30.397Z,16.98
2018-09-11T06:11:57.599Z,17.00
2018-09-11T06:14:24.786Z,17.05
2018-09-11T06:16:52.022Z,17.09
2018-09-11T06:19:19.257Z,17.09
2018-09-11T06:21:46.457Z,17.11
2018-09-11T06:24:13.668Z,17.14
2018-09-11T06:26:40.822Z,17.32
2018-09-11T06:29:08.078Z,17.52
2018-09-11T06:31:35.277Z,17.72
2018-09-11T06:34:02.715Z,18.04
2018-09-11T06:36:29.962Z,18.18
2018-09-11T06:38:57.199Z,18.40
2018-09-11T06:41:24.480Z,18.51
2018-09-11T06:43:51.752Z,18.81
2018-09-11T06:46:18.955Z,19.18
2018-09-11T06:48:46.217Z,19.57
2018-09-11T06:51:13.447Z,19.96
2018-09-11T06:53:40.614Z,20.42
2018-09-11T06:56:07.902Z,20.82
2018-09-11T06:58:35.130Z,21.38
2018-09-11T07:01:02.339Z,22.13
2018-09-11T07:03:29.556Z,22.54
2018-09-11T07:05:56.816Z,22.90
2018-09-11T07:08:24.042Z,23.07
2018-09-11T07:10:51.292Z,23.61
2018-09-11T07:13:18.503Z,23.64
2018-09-11T07:15:45.786Z,24.02
2018-09-11T07:18:12.942Z,24.28
2018-09-11T07:20:40.157Z,24.54
2018-09-11T07:23:07.368Z,24.81
2018-09-11T07:25:34.565Z,25.27
2018-09-11T07:28:01.776Z,25.39
2018-09-11T07:30:29.092Z,25.52
2018-09-11T07:32:56.283Z,25.72
2018-09-11T07:35:23.518Z,25.35
2018-09-11T07:37:50.884Z,25.11
2018-09-11T07:40:18.132Z,24.97
2018-09-11T07:42:45.334Z,25.11
2018-09-11T07:45:12.584Z,25.66
2018-09-11T07:47:41.534Z,25.74
2018-09-11T07:50:08.803Z,25.76
2018-09-11T07:52:36.106Z,26.02
2018-09-11T07:55:03.399Z,26.12
2018-09-11T07:57:30.645Z,26.13
2018-09-11T07:59:57.951Z,26.41
2018-09-11T08:02:25.152Z,26.65
2018-09-11T08:04:52.409Z,26.40
2018-09-11T08:07:19.683Z,26.02
2018-09-11T08:09:46.917Z,25.82
2018-09-11T08:12:14.158Z,26.02
2018-09-11T08:14:41.585Z,26.07
2018-09-11T08:17:08.794Z,26.39
2018-09-11T08:19:36.068Z,26.85
2018-09-11T08:22:03.233Z,27.11
2018-09-11T08:24:30.429Z,26.74
2018-09-11T08:26:57.694Z,26.85
2018-09-11T08:29:24.986Z,26.73
2018-09-11T08:31:52.216Z,26.49
2018-09-11T08:34:19.463Z,26.48
2018-09-11T08:36:46.694Z,26.17
2018-09-11T08:39:13.938Z,25.90
2018-09-11T08:41:41.165Z,25.51
2018-09-11T08:44:08.474Z,25.42
2018-09-11T08:46:35.951Z,25.71
2018-09-11T08:49:03.229Z,25.79
2018-09-11T08:51:30.436Z,25.94
2018-09-11T08:53:57.681Z,26.19
2018-09-11T08:56:24.907Z,26.13
2018-09-11T08:58:52.130Z,26.07
2018-09-11T09:01:19.404Z,25.94
2018-09-11T09:03:46.658Z,25.82
2018-09-11T09:06:13.927Z,25.79
2018-09-11T09:08:41.148Z,25.82
2018-09-11T09:11:08.367Z,26.20
2018-09-11T09:13:35.578Z,26.09
2018-09-11T09:16:02.877Z,26.40
2018-09-11T09:18:30.098Z,26.45
2018-09-11T09:20:57.463Z,26.22
2018-09-11T09:23:24.684Z,26.40
2018-09-11T09:25:51.914Z,26.47
2018-09-11T09:28:19.195Z,26.62
2018-09-11T09:30:46.418Z,26.82
2018-09-11T09:33:13.722Z,27.25
2018-09-11T09:35:40.879Z,27.58
2018-09-11T09:38:08.890Z,27.43
2018-09-11T09:40:36.098Z,27.76
2018-09-11T09:43:03.361Z,28.14
2018-09-11T09:45:30.614Z,27.95
2018-09-11T09:47:57.866Z,27.86
2018-09-11T09:50:25.095Z,28.36
2018-09-11T09:52:52.371Z,28.54
2018-09-11T09:55:19.702Z,28.33
2018-09-11T09:57:46.935Z,28.33
2018-09-11T10:00:18.904Z,28.86
2018-09-11T10:02:46.239Z,28.77
2018-09-11T10:05:13.513Z,28.72
2018-09-11T10:07:40.734Z,28.83
2018-09-11T10:10:08.003Z,29.16
2018-09-11T10:12:35.279Z,29.25
2018-09-11T10:15:02.522Z,29.55
2018-09-11T10:17:29.824Z,29.49
2018-09-11T10:19:57.252Z,30.16
2018-09-11T10:22:24.508Z,30.66
2018-09-11T10:24:51.808Z,31.26
2018-09-11T10:27:19.098Z,31.18
2018-09-11T10:29:46.303Z,31.42
2018-09-11T10:32:13.539Z,31.70
2018-09-11T10:34:40.771Z,32.43
2018-09-11T10:37:08.048Z,32.87
2018-09-11T10:39:35.369Z,32.26
2018-09-11T10:42:02.648Z,32.03
2018-09-11T10:44:29.944Z,32.55
2018-09-11T10:46:58.262Z,32.96
2018-09-11T10:49:25.506Z,33.18
2018-09-11T10:51:52.768Z,32.47
2018-09-11T10:54:20.044Z,32.04
2018-09-11T10:56:47.336Z,31.36
2018-09-11T10:59:14.637Z,31.62
2018-09-11T11:01:41.896Z,30.96
2018-09-11T11:04:09.251Z,30.45
2018-09-11T11:06:36.478Z,30.54
2018-09-11T11:09:05.970Z,30.95
2018-09-11T11:11:33.203Z,31.21
2018-09-11T11:14:00.508Z,32.02
2018-09-11T11:16:27.752Z,32.49
2018-09-11T11:18:55.017Z,32.85
2018-09-11T11:21:22.213Z,32.40
2018-09-11T11:23:49.527Z,32.08
2018-09-11T11:26:16.739Z,32.10
2018-09-11T11:28:44.001Z,32.27
2018-09-11T11:31:11.219Z,32.38
2018-09-11T11:33:38.508Z,32.54
2018-09-11T11:36:07.038Z,32.10
2018-09-11T11:38:34.192Z,32.12
2018-09-11T11:41:01.364Z,32.68
2018-09-11T11:43:28.643Z,32.08
2018-09-11T11:45:55.840Z,32.09
2018-09-11T11:48:23.225Z,32.80
2018-09-11T11:50:50.368Z,33.38
2018-09-11T11:53:17.571Z,33.21
2018-09-11T11:55:44.903Z,32.75
2018-09-11T11:58:12.126Z,32.69
2018-09-11T12:00:39.451Z,32.27
2018-09-11T12:03:07.414Z,32.37
2018-09-11T12:05:34.667Z,32.88
2018-09-11T12:08:01.922Z,32.61
2018-09-11T12:10:29.221Z,32.85
2018-09-11T12:12:56.436Z,32.92
2018-09-11T12:15:23.651Z,32.86
2018-09-11T12:17:50.962Z,33.05
2018-09-11T12:20:18.207Z,33.26
2018-09-11T12:22:45.505Z,33.44
2018-09-11T12:25:12.802Z,33.71
2018-09-11T12:27:40.066Z,33.61
2018-09-11T12:30:07.363Z,33.18
2018-09-11T12:32:34.690Z,32.62
2018-09-11T12:35:01.971Z,32.33
2018-09-11T12:37:29.184Z,31.94
2018-09-11T12:39:56.446Z,32.73
2018-09-11T12:42:23.727Z,33.22
2018-09-11T12:44:51.013Z,33.20
2018-09-11T12:47:18.487Z,32.94
2018-09-11T12:49:45.578Z,33.19
2018-09-11T12:52:12.841Z,33.64
2018-09-11T12:54:40.097Z,33.72
2018-09-11T12:57:07.414Z,33.24
2018-09-11T12:59:34.703Z,32.77
2018-09-11T13:02:01.998Z,32.96
2018-09-11T13:04:29.284Z,33.84
2018-09-11T13:06:56.632Z,34.15
2018-09-11T13:09:24.045Z,34.67
2018-09-11T13:11:51.517Z,34.77
2018-09-11T13:14:20.426Z,34.95
2018-09-11T13:16:47.624Z,35.42
2018-09-11T13:19:14.833Z,35.28
2018-09-11T13:21:42.157Z,35.02
2018-09-11T13:24:09.426Z,35.09
2018-09-11T13:26:36.703Z,34.84
2018-09-11T13:29:03.952Z,34.52
2018-09-11T13:31:31.221Z,34.15
2018-09-11T13:33:58.621Z,34.60
2018-09-11T13:36:25.859Z,35.00
2018-09-11T13:38:53.185Z,35.49
2018-09-11T13:41:20.457Z,35.53
2018-09-11T13:43:48.269Z,35.34
2018-09-11T13:46:15.546Z,35.19
2018-09-11T13:48:42.742Z,35.24
2018-09-11T13:51:09.996Z,35.30
2018-09-11T13:53:37.303Z,35.25
2018-09-11T13:56:04.637Z,34.24
2018-09-11T13:58:31.911Z,33.67
2018-09-11T14:00:59.161Z,34.02
2018-09-11T14:03:26.456Z,33.99
2018-09-11T14:05:53.709Z,34.35
2018-09-11T14:08:21.251Z,34.52
2018-09-11T14:10:48.534Z,34.53
2018-09-11T14:13:15.737Z,34.06
2018-09-11T14:15:42.973Z,34.31
2018-09-11T14:18:10.209Z,34.52
2018-09-11T14:20:37.485Z,34.41
2018-09-11T14:23:04.734Z,34.34
2018-09-11T14:25:35.046Z,34.49
2018-09-11T14:28:02.398Z,34.74
2018-09-11T14:30:29.720Z,34.59
2018-09-11T14:32:57.017Z,34.56
2018-09-11T14:35:24.342Z,34.89
2018-09-11T14:37:51.617Z,34.83
2018-09-11T14:40:18.943Z,34.48
2018-09-11T14:42:46.268Z,34.26
2018-09-11T14:45:13.504Z,33.68
2018-09-11T14:47:42.800Z,33.19
2018-09-11T14:50:10.859Z,33.68
2018-09-11T14:52:38.443Z,34.02
2018-09-11T14:55:05.826Z,34.36
2018-09-11T14:57:33.424Z,34.22
2018-09-11T15:00:00.739Z,34.64
2018-09-11T15:02:28.098Z,34.53
2018-09-11T15:04:55.645Z,33.95
2018-09-11T15:07:23.160Z,33.95
2018-09-11T15:09:50.396Z,34.16
2018-09-11T15:12:17.654Z,34.05
2018-09-11T15:14:44.932Z,34.48
2018-09-11T15:17:12.195Z,34.95
2018-09-11T15:19:39.503Z,35.35
2018-09-11T15:22:06.802Z,35.53
2018-09-11T15:24:34.031Z,35.47
2018-09-11T15:27:01.241Z,35.73
2018-09-11T15:29:28.467Z,35.51
2018-09-11T15:31:55.644Z,35.07
2018-09-11T15:34:22.974Z,34.81
2018-09-11T15:36:50.253Z,34.33
2018-09-11T15:39:17.469Z,34.08
2018-09-11T15:41:44.748Z,33.86
2018-09-11T15:44:12.142Z,33.88
2018-09-11T15:46:39.428Z,34.23
2018-09-11T15:49:06.703Z,34.37
2018-09-11T15:51:34.186Z,34.29
2018-09-11T15:54:01.442Z,34.03
2018-09-11T15:56:28.704Z,34.11
2018-09-11T15:58:55.913Z,34.04
2018-09-11T16:01:23.178Z,33.85
2018-09-11T16:03:50.402Z,33.98
2018-09-11T16:06:17.782Z,33.86
2018-09-11T16:08:45.072Z,33.92
2018-09-11T16:11:12.378Z,33.83
2018-09-11T16:13:39.676Z,33.62
2018-09-11T16:16:06.897Z,33.15
2018-09-11T16:18:34.182Z,32.91
2018-09-11T16:21:01.558Z,32.89
2018-09-11T16:23:28.790Z,33.13
2018-09-11T16:25:56.095Z,32.58
2018-09-11T16:28:23.353Z,32.14
2018-09-11T16:30:50.528Z,32.24
2018-09-11T16:33:17.796Z,31.91
2018-09-11T16:35:45.088Z,31.83
2018-09-11T16:38:12.316Z,31.66
2018-09-11T16:40:39.738Z,31.39
2018-09-11T16:43:07.045Z,31.29
2018-09-11T16:45:34.297Z,30.98
2018-09-11T16:48:01.559Z,30.57
2018-09-11T16:50:28.873Z,30.52
2018-09-11T16:52:56.102Z,30.19
2018-09-11T16:55:23.367Z,29.75
2018-09-11T16:57:50.696Z,29.60
2018-09-11T17:00:17.910Z,29.47
2018-09-11T17:02:45.248Z,29.22
2018-09-11T17:05:12.532Z,28.94
2018-09-11T17:07:39.813Z,28.74
2018-09-11T17:10:07.155Z,28.41
2018-09-11T17:12:34.378Z,28.27
2018-09-11T17:15:01.585Z,28.01
2018-09-11T17:17:28.838Z,27.84
2018-09-11T17:19:56.144Z,27.74
2018-09-11T17:22:23.365Z,27.49
2018-09-11T17:24:51.389Z,27.45
2018-09-11T17:27:18.695Z,27.32
2018-09-11T17:29:45.854Z,27.30
2018-09-11T17:32:13.111Z,27.18
2018-09-11T17:34:40.343Z,26.97
2018-09-11T17:37:07.617Z,26.84
2018-09-11T17:39:34.881Z,26.77
2018-09-11T17:42:02.211Z,26.66
2018-09-11T17:44:29.465Z,26.59
2018-09-11T17:46:56.805Z,26.46
2018-09-11T17:49:24.057Z,26.18
2018-09-11T17:51:51.336Z,26.12
2018-09-11T17:54:18.545Z,26.03
2018-09-11T17:56:45.817Z,25.88
2018-09-11T17:59:13.028Z,25.79
2018-09-11T18:01:40.265Z,25.67
2018-09-11T18:04:07.541Z,25.57
2018-09-11T18:06:34.827Z,25.48
2018-09-11T18:09:02.139Z,25.39
2018-09-11T18:11:29.440Z,25.19
2018-09-11T18:13:56.697Z,25.24
2018-09-11T18:16:23.904Z,25.10
2018-09-11T18:18:51.237Z,24.92
2018-09-11T18:21:18.462Z,24.82
2018-09-11T18:23:45.815Z,24.73
2018-09-11T18:26:13.050Z,24.67
2018-09-11T18:28:40.319Z,24.64
2018-09-11T18:31:07.655Z,24.66
2018-09-11T18:33:34.943Z,24.45
2018-09-11T18:36:03.030Z,24.43
2018-09-11T18:38:30.336Z,24.27
2018-09-11T18:40:57.588Z,24.21
2018-09-11T18:43:24.872Z,24.11
2018-09-11T18:45:52.161Z,23.98
2018-09-11T18:48:19.412Z,23.87
2018-09-11T18:50:46.667Z,23.76
2018-09-11T18:53:13.970Z,23.65
2018-09-11T18:55:41.239Z,23.50
2018-09-11T18:58:08.595Z,23.41
2018-09-11T19:00:35.812Z,23.39
2018-09-11T19:03:03.093Z,23.30
2018-09-11T19:05:30.752Z,23.22
2018-09-11T19:07:58.725Z,23.13
2018-09-11T19:10:25.973Z,23.02
2018-09-11T19:12:53.328Z,22.97
2018-09-11T19:15:20.623Z,22.93
2018-09-11T19:17:47.839Z,22.88
2018-09-11T19:20:15.188Z,22.86
2018-09-11T19:22:42.428Z,22.74
2018-09-11T19:25:09.706Z,22.67
2018-09-11T19:27:36.903Z,22.58
2018-09-11T19:30:05.415Z,22.47
2018-09-11T19:32:32.638Z,22.33
2018-09-11T19:34:59.903Z,22.27
2018-09-11T19:37:27.119Z,22.14
2018-09-11T19:39:54.315Z,22.12
2018-09-11T19:42:21.596Z,22.02
2018-09-11T19:44:48.827Z,21.86
2018-09-11T19:47:16.128Z,21.79
2018-09-11T19:49:43.356Z,21.77
2018-09-11T19:52:10.536Z,21.84
2018-09-11T19:54:37.824Z,21.79
2018-09-11T19:57:05.203Z,21.79
2018-09-11T19:59:32.458Z,21.72
2018-09-11T20:01:59.669Z,21.71
2018-09-11T20:04:26.922Z,21.73
2018-09-11T20:06:54.254Z,21.67
2018-09-11T20:09:21.502Z,21.66
2018-09-11T20:11:48.751Z,21.60
2018-09-11T20:14:15.917Z,21.56
2018-09-11T20:16:43.164Z,21.41
2018-09-11T20:19:10.415Z,21.27
2018-09-11T20:21:37.704Z,21.26
2018-09-11T20:24:05.037Z,21.24
2018-09-11T20:26:32.369Z,21.08
2018-09-11T20:28:59.646Z,20.95
2018-09-11T20:31:26.820Z,20.80
2018-09-11T20:33:54.175Z,20.72
2018-09-11T20:36:21.396Z,20.74
2018-09-11T20:38:48.677Z,20.73
2018-09-11T20:41:15.918Z,20.72
2018-09-11T20:43:43.155Z,20.67
2018-09-11T20:46:10.382Z,20.70
2018-09-11T20:48:37.654Z,20.59
2018-09-11T20:51:04.876Z,20.55
2018-09-11T20:53:32.167Z,20.52
2018-09-11T20:55:59.464Z,20.49
2018-09-11T20:58:26.569Z,20.48
2018-09-11T21:00:53.718Z,20.28
2018-09-11T21:03:21.009Z,20.27
2018-09-11T21:05:48.435Z,20.22
2018-09-11T21:08:15.683Z,20.07
2018-09-11T21:10:42.871Z,20.11
2018-09-11T21:13:10.181Z,20.09
2018-09-11T21:15:37.389Z,19.89
2018-09-11T21:18:04.621Z,19.83
2018-09-11T21:20:31.875Z,19.83
2018-09-11T21:22:59.183Z,19.82
2018-09-11T21:25:26.422Z,19.74
2018-09-11T21:27:53.691Z,19.76
2018-09-11T21:30:20.928Z,19.72
2018-09-11T21:32:48.250Z,19.76
2018-09-11T21:35:15.508Z,19.74
2018-09-11T21:37:42.722Z,19.66
2018-09-11T21:40:09.982Z,19.69
2018-09-11T21:42:37.311Z,19.60
2018-09-11T21:45:04.761Z,19.55
2018-09-11T21:47:32.069Z,19.46
2018-09-11T21:49:59.367Z,19.42
2018-09-11T21:52:26.601Z,19.38
2018-09-11T21:54:53.992Z,19.41
2018-09-11T21:57:21.275Z,19.27
2018-09-11T21:59:48.572Z,19.27
2018-09-11T22:02:15.839Z,19.16
2018-09-11T22:04:43.073Z,19.22
2018-09-11T22:07:10.320Z,19.22
2018-09-11T22:09:37.565Z,19.21
2018-09-11T22:12:05.093Z,19.09
2018-09-11T22:14:32.294Z,18.88
2018-09-11T22:16:59.559Z,18.64
2018-09-11T22:19:26.835Z,18.54
2018-09-11T22:21:54.136Z,18.63
2018-09-11T22:24:21.391Z,18.66
2018-09-11T22:26:48.642Z,18.76
2018-09-11T22:29:15.836Z,18.79
2018-09-11T22:31:43.108Z,18.77
2018-09-11T22:34:10.316Z,18.67
2018-09-11T22:36:37.603Z,18.69
2018-09-11T22:39:06.357Z,18.70
2018-09-11T22:41:33.699Z,18.68
2018-09-11T22:44:00.913Z,18.55
2018-09-11T22:46:28.250Z,18.47
2018-09-11T22:48:55.467Z,18.47
2018-09-11T22:51:22.713Z,18.50
2018-09-11T22:53:49.877Z,18.48
2018-09-11T22:56:17.125Z,18.47
2018-09-11T22:58:44.387Z,18.33
2018-09-11T23:01:11.908Z,18.24
2018-09-11T23:03:39.124Z,18.16
2018-09-11T23:06:06.411Z,18.18
2018-09-11T23:08:33.637Z,18.16
2018-09-11T23:11:00.824Z,18.17
2018-09-11T23:13:28.074Z,18.12
2018-09-11T23:15:55.302Z,18.08
2018-09-11T23:18:22.552Z,18.07
2018-09-11T23:20:49.773Z,18.03
2018-09-11T23:23:17.042Z,17.83
2018-09-11T23:25:44.335Z,17.78
2018-09-11T23:28:11.576Z,17.87
2018-09-11T23:30:38.818Z,17.84
2018-09-11T23:33:06.069Z,17.82
2018-09-11T23:35:33.295Z,17.76
2018-09-11T23:38:00.576Z,17.77
2018-09-11T23:40:27.777Z,17.73
2018-09-11T23:42:55.087Z,17.69
2018-09-11T23:45:22.274Z,17.68
2018-09-11T23:47:49.532Z,17.71
2018-09-11T23:50:16.762Z,17.72
2018-09-11T23:52:44.074Z,17.65
2018-09-11T23:55:11.339Z,17.58
2018-09-11T23:57:38.544Z,17.45
